sensor_id;sensor_type;location;lat;lon;timestamp;P1;durP1;ratioP1;P2;durP2;ratioP2
48623;SDS011;34422;45.802;16.114;2023-06-22T00:00:53;8.82;;;4.20;;
48623;SDS011;34422;45.802;16.114;2023-06-22T00:03:22;13.60;;;4.25;;
48623;SDS011;34422;45.802;16.114;2023-06-22T00:05:51;13.25;;;5.32;;
48623;SDS011;34422;45.802;16.114;2023-06-22T00:08:19;9.77;;;3.90;;
48623;SDS011;34422;45.802;16.114;2023-06-22T00:10:46;12.52;;;4.57;;
48623;SDS011;34422;45.802;16.114;2023-06-22T00:13:13;7.30;;;3.70;;
48623;SDS011;34422;45.802;16.114;2023-06-22T00:15:40;8.77;;;3.63;;
48623;SDS011;34422;45.802;16.114;2023-06-22T00:18:08;12.45;;;4.18;;
48623;SDS011;34422;45.802;16.114;2023-06-22T00:20:36;12.13;;;4.75;;
48623;SDS011;34422;45.802;16.114;2023-06-22T00:23:04;10.95;;;4.18;;
48623;SDS011;34422;45.802;16.114;2023-06-22T00:25:36;8.68;;;3.95;;
48623;SDS011;34422;45.802;16.114;2023-06-22T00:28:04;13.95;;;4.38;;
48623;SDS011;34422;45.802;16.114;2023-06-22T00:30:31;11.15;;;4.65;;
48623;SDS011;34422;45.802;16.114;2023-06-22T00:32:58;12.35;;;4.50;;
48623;SDS011;34422;45.802;16.114;2023-06-22T00:35:26;14.02;;;4.75;;
48623;SDS011;34422;45.802;16.114;2023-06-22T00:40:31;10.88;;;4.93;;
48623;SDS011;34422;45.802;16.114;2023-06-22T00:42:58;14.95;;;4.93;;
48623;SDS011;34422;45.802;16.114;2023-06-22T00:45:26;11.68;;;3.92;;
48623;SDS011;34422;45.802;16.114;2023-06-22T00:47:53;9.02;;;4.25;;
48623;SDS011;34422;45.802;16.114;2023-06-22T00:50:23;12.43;;;3.95;;
48623;SDS011;34422;45.802;16.114;2023-06-22T00:52:53;13.82;;;5.32;;
48623;SDS011;34422;45.802;16.114;2023-06-22T00:55:25;13.68;;;4.10;;
48623;SDS011;34422;45.802;16.114;2023-06-22T00:57:52;8.15;;;3.97;;
48623;SDS011;34422;45.802;16.114;2023-06-22T01:00:25;10.80;;;4.68;;
48623;SDS011;34422;45.802;16.114;2023-06-22T01:05:22;10.05;;;4.15;;
48623;SDS011;34422;45.802;16.114;2023-06-22T01:08:06;9.50;;;4.10;;
48623;SDS011;34422;45.802;16.114;2023-06-22T01:10:46;13.95;;;4.97;;
48623;SDS011;34422;45.802;16.114;2023-06-22T01:13:27;12.15;;;4.95;;
48623;SDS011;34422;45.802;16.114;2023-06-22T01:15:57;12.82;;;4.00;;
48623;SDS011;34422;45.802;16.114;2023-06-22T01:18:24;12.35;;;4.65;;
48623;SDS011;34422;45.802;16.114;2023-06-22T01:20:55;11.25;;;4.47;;
48623;SDS011;34422;45.802;16.114;2023-06-22T01:23:33;10.07;;;4.55;;
48623;SDS011;34422;45.802;16.114;2023-06-22T01:26:17;11.68;;;4.85;;
48623;SDS011;34422;45.802;16.114;2023-06-22T01:28:48;11.02;;;4.00;;
48623;SDS011;34422;45.802;16.114;2023-06-22T01:31:17;12.95;;;4.80;;
48623;SDS011;34422;45.802;16.114;2023-06-22T01:33:50;13.02;;;4.63;;
48623;SDS011;34422;45.802;16.114;2023-06-22T01:36:19;11.07;;;3.70;;
48623;SDS011;34422;45.802;16.114;2023-06-22T01:38:47;11.40;;;4.43;;
48623;SDS011;34422;45.802;16.114;2023-06-22T01:41:14;12.88;;;4.00;;
48623;SDS011;34422;45.802;16.114;2023-06-22T01:43:43;12.15;;;4.40;;
48623;SDS011;34422;45.802;16.114;2023-06-22T01:46:11;11.88;;;4.40;;
48623;SDS011;34422;45.802;16.114;2023-06-22T01:48:38;12.90;;;4.60;;
48623;SDS011;34422;45.802;16.114;2023-06-22T01:51:06;11.52;;;4.50;;
48623;SDS011;34422;45.802;16.114;2023-06-22T01:53:33;12.43;;;4.28;;
48623;SDS011;34422;45.802;16.114;2023-06-22T01:56:00;11.35;;;4.15;;
48623;SDS011;34422;45.802;16.114;2023-06-22T01:58:27;10.65;;;4.38;;
48623;SDS011;34422;45.802;16.114;2023-06-22T02:01:00;10.02;;;4.22;;
48623;SDS011;34422;45.802;16.114;2023-06-22T02:06:23;13.15;;;4.25;;
48623;SDS011;34422;45.802;16.114;2023-06-22T02:08:55;9.13;;;4.97;;
48623;SDS011;34422;45.802;16.114;2023-06-22T02:11:25;8.98;;;4.22;;
48623;SDS011;34422;45.802;16.114;2023-06-22T02:13:55;9.33;;;4.57;;
48623;SDS011;34422;45.802;16.114;2023-06-22T02:16:24;18.00;;;6.00;;
48623;SDS011;34422;45.802;16.114;2023-06-22T02:18:55;10.07;;;4.50;;
48623;SDS011;34422;45.802;16.114;2023-06-22T02:21:29;11.38;;;5.05;;
48623;SDS011;34422;45.802;16.114;2023-06-22T02:23:57;13.18;;;5.13;;
48623;SDS011;34422;45.802;16.114;2023-06-22T02:26:25;14.75;;;5.32;;
48623;SDS011;34422;45.802;16.114;2023-06-22T02:28:52;10.63;;;5.28;;
48623;SDS011;34422;45.802;16.114;2023-06-22T02:31:19;12.27;;;5.57;;
48623;SDS011;34422;45.802;16.114;2023-06-22T02:33:46;13.55;;;5.63;;
48623;SDS011;34422;45.802;16.114;2023-06-22T02:36:14;14.45;;;5.22;;
48623;SDS011;34422;45.802;16.114;2023-06-22T02:38:41;11.38;;;4.88;;
48623;SDS011;34422;45.802;16.114;2023-06-22T02:41:14;9.88;;;5.50;;
48623;SDS011;34422;45.802;16.114;2023-06-22T02:43:45;13.02;;;5.28;;
48623;SDS011;34422;45.802;16.114;2023-06-22T02:46:13;10.75;;;5.18;;
48623;SDS011;34422;45.802;16.114;2023-06-22T02:48:40;9.43;;;5.15;;
48623;SDS011;34422;45.802;16.114;2023-06-22T02:51:07;11.13;;;5.40;;
48623;SDS011;34422;45.802;16.114;2023-06-22T02:53:34;16.83;;;6.00;;
48623;SDS011;34422;45.802;16.114;2023-06-22T02:56:02;11.13;;;5.40;;
48623;SDS011;34422;45.802;16.114;2023-06-22T02:58:32;11.32;;;5.30;;
48623;SDS011;34422;45.802;16.114;2023-06-22T03:01:07;12.05;;;5.35;;
48623;SDS011;34422;45.802;16.114;2023-06-22T03:03:34;10.45;;;5.50;;
48623;SDS011;34422;45.802;16.114;2023-06-22T03:06:01;13.88;;;5.63;;
48623;SDS011;34422;45.802;16.114;2023-06-22T03:08:28;13.95;;;5.38;;
48623;SDS011;34422;45.802;16.114;2023-06-22T03:10:55;12.90;;;5.80;;
48623;SDS011;34422;45.802;16.114;2023-06-22T03:13:22;11.82;;;5.57;;
48623;SDS011;34422;45.802;16.114;2023-06-22T03:15:50;11.68;;;6.00;;
48623;SDS011;34422;45.802;16.114;2023-06-22T03:18:17;14.98;;;6.05;;
48623;SDS011;34422;45.802;16.114;2023-06-22T03:20:43;13.30;;;5.60;;
48623;SDS011;34422;45.802;16.114;2023-06-22T03:23:10;13.55;;;6.10;;
48623;SDS011;34422;45.802;16.114;2023-06-22T03:25:37;10.02;;;4.97;;
48623;SDS011;34422;45.802;16.114;2023-06-22T03:28:04;12.40;;;5.72;;
48623;SDS011;34422;45.802;16.114;2023-06-22T03:30:31;9.63;;;5.53;;
48623;SDS011;34422;45.802;16.114;2023-06-22T03:32:58;11.30;;;5.40;;
48623;SDS011;34422;45.802;16.114;2023-06-22T03:35:25;12.40;;;6.05;;
48623;SDS011;34422;45.802;16.114;2023-06-22T03:37:52;16.50;;;5.90;;
48623;SDS011;34422;45.802;16.114;2023-06-22T03:40:19;13.52;;;5.88;;
48623;SDS011;34422;45.802;16.114;2023-06-22T03:42:46;13.07;;;6.22;;
48623;SDS011;34422;45.802;16.114;2023-06-22T03:45:12;13.68;;;6.13;;
48623;SDS011;34422;45.802;16.114;2023-06-22T03:47:39;13.77;;;5.40;;
48623;SDS011;34422;45.802;16.114;2023-06-22T03:50:06;13.93;;;5.88;;
48623;SDS011;34422;45.802;16.114;2023-06-22T03:52:33;16.75;;;7.22;;
48623;SDS011;34422;45.802;16.114;2023-06-22T03:55:00;17.17;;;6.47;;
48623;SDS011;34422;45.802;16.114;2023-06-22T03:57:27;16.70;;;6.40;;
48623;SDS011;34422;45.802;16.114;2023-06-22T03:59:56;16.95;;;6.47;;
48623;SDS011;34422;45.802;16.114;2023-06-22T04:02:23;12.77;;;5.45;;
48623;SDS011;34422;45.802;16.114;2023-06-22T04:04:51;14.32;;;5.55;;
48623;SDS011;34422;45.802;16.114;2023-06-22T04:07:18;14.10;;;5.93;;
48623;SDS011;34422;45.802;16.114;2023-06-22T04:09:44;12.20;;;5.93;;
48623;SDS011;34422;45.802;16.114;2023-06-22T04:12:11;13.40;;;5.18;;
48623;SDS011;34422;45.802;16.114;2023-06-22T04:14:38;11.75;;;5.55;;
48623;SDS011;34422;45.802;16.114;2023-06-22T04:17:05;13.27;;;5.85;;
48623;SDS011;34422;45.802;16.114;2023-06-22T04:19:31;15.05;;;6.32;;
48623;SDS011;34422;45.802;16.114;2023-06-22T04:21:58;17.88;;;6.57;;
48623;SDS011;34422;45.802;16.114;2023-06-22T04:24:25;12.07;;;5.65;;
48623;SDS011;34422;45.802;16.114;2023-06-22T04:26:52;12.68;;;5.68;;
48623;SDS011;34422;45.802;16.114;2023-06-22T04:29:21;16.85;;;6.47;;
48623;SDS011;34422;45.802;16.114;2023-06-22T04:31:57;12.65;;;6.07;;
48623;SDS011;34422;45.802;16.114;2023-06-22T04:34:25;15.35;;;5.97;;
48623;SDS011;34422;45.802;16.114;2023-06-22T04:36:54;13.77;;;5.90;;
48623;SDS011;34422;45.802;16.114;2023-06-22T04:39:21;12.55;;;5.65;;
48623;SDS011;34422;45.802;16.114;2023-06-22T04:41:48;13.10;;;5.50;;
48623;SDS011;34422;45.802;16.114;2023-06-22T04:44:16;14.80;;;6.00;;
48623;SDS011;34422;45.802;16.114;2023-06-22T04:46:51;14.57;;;6.07;;
48623;SDS011;34422;45.802;16.114;2023-06-22T04:49:20;16.55;;;6.35;;
48623;SDS011;34422;45.802;16.114;2023-06-22T04:51:48;17.95;;;7.50;;
48623;SDS011;34422;45.802;16.114;2023-06-22T04:54:18;18.10;;;7.90;;
48623;SDS011;34422;45.802;16.114;2023-06-22T04:56:45;21.50;;;7.50;;
48623;SDS011;34422;45.802;16.114;2023-06-22T04:59:13;19.75;;;7.97;;
48623;SDS011;34422;45.802;16.114;2023-06-22T05:01:40;14.43;;;6.18;;
48623;SDS011;34422;45.802;16.114;2023-06-22T05:04:06;13.32;;;6.20;;
48623;SDS011;34422;45.802;16.114;2023-06-22T05:06:34;17.75;;;6.28;;
48623;SDS011;34422;45.802;16.114;2023-06-22T05:09:00;9.95;;;4.93;;
48623;SDS011;34422;45.802;16.114;2023-06-22T05:11:29;14.15;;;6.30;;
48623;SDS011;34422;45.802;16.114;2023-06-22T05:13:55;13.35;;;6.45;;
48623;SDS011;34422;45.802;16.114;2023-06-22T05:16:24;16.05;;;7.00;;
48623;SDS011;34422;45.802;16.114;2023-06-22T05:18:54;13.73;;;6.88;;
48623;SDS011;34422;45.802;16.114;2023-06-22T05:21:22;12.35;;;6.70;;
48623;SDS011;34422;45.802;16.114;2023-06-22T05:23:51;16.40;;;6.68;;
48623;SDS011;34422;45.802;16.114;2023-06-22T05:26:18;14.63;;;6.93;;
48623;SDS011;34422;45.802;16.114;2023-06-22T05:28:46;13.95;;;7.22;;
48623;SDS011;34422;45.802;16.114;2023-06-22T05:31:14;20.20;;;7.45;;
48623;SDS011;34422;45.802;16.114;2023-06-22T05:33:42;14.23;;;6.15;;
48623;SDS011;34422;45.802;16.114;2023-06-22T05:36:10;14.00;;;6.78;;
48623;SDS011;34422;45.802;16.114;2023-06-22T05:38:37;15.20;;;6.60;;
48623;SDS011;34422;45.802;16.114;2023-06-22T05:41:04;16.58;;;6.25;;
48623;SDS011;34422;45.802;16.114;2023-06-22T05:43:31;15.95;;;5.53;;
48623;SDS011;34422;45.802;16.114;2023-06-22T05:45:59;15.95;;;7.28;;
48623;SDS011;34422;45.802;16.114;2023-06-22T05:48:27;14.55;;;5.75;;
48623;SDS011;34422;45.802;16.114;2023-06-22T05:50:55;17.27;;;6.35;;
48623;SDS011;34422;45.802;16.114;2023-06-22T05:53:22;17.17;;;6.47;;
48623;SDS011;34422;45.802;16.114;2023-06-22T05:55:49;11.40;;;5.10;;
48623;SDS011;34422;45.802;16.114;2023-06-22T05:58:15;17.65;;;6.47;;
48623;SDS011;34422;45.802;16.114;2023-06-22T06:00:42;12.43;;;5.57;;
48623;SDS011;34422;45.802;16.114;2023-06-22T06:03:10;13.27;;;6.43;;
48623;SDS011;34422;45.802;16.114;2023-06-22T06:05:37;17.00;;;6.75;;
48623;SDS011;34422;45.802;16.114;2023-06-22T06:08:04;30.05;;;19.23;;
48623;SDS011;34422;45.802;16.114;2023-06-22T06:10:33;19.33;;;6.93;;
48623;SDS011;34422;45.802;16.114;2023-06-22T06:13:00;14.27;;;6.75;;
48623;SDS011;34422;45.802;16.114;2023-06-22T06:15:31;16.02;;;6.57;;
48623;SDS011;34422;45.802;16.114;2023-06-22T06:17:59;15.05;;;6.57;;
48623;SDS011;34422;45.802;16.114;2023-06-22T06:20:26;14.10;;;6.32;;
48623;SDS011;34422;45.802;16.114;2023-06-22T06:22:54;13.52;;;5.65;;
48623;SDS011;34422;45.802;16.114;2023-06-22T06:25:21;18.35;;;6.05;;
48623;SDS011;34422;45.802;16.114;2023-06-22T06:27:49;18.02;;;7.70;;
48623;SDS011;34422;45.802;16.114;2023-06-22T06:30:17;18.95;;;8.82;;
48623;SDS011;34422;45.802;16.114;2023-06-22T06:32:45;16.55;;;6.60;;
48623;SDS011;34422;45.802;16.114;2023-06-22T06:35:16;21.48;;;7.97;;
48623;SDS011;34422;45.802;16.114;2023-06-22T06:37:44;17.88;;;6.05;;
48623;SDS011;34422;45.802;16.114;2023-06-22T06:40:12;15.43;;;5.80;;
48623;SDS011;34422;45.802;16.114;2023-06-22T06:42:41;14.25;;;6.03;;
48623;SDS011;34422;45.802;16.114;2023-06-22T06:45:18;17.98;;;7.20;;
48623;SDS011;34422;45.802;16.114;2023-06-22T06:47:46;13.48;;;5.72;;
48623;SDS011;34422;45.802;16.114;2023-06-22T06:50:13;12.80;;;6.03;;
48623;SDS011;34422;45.802;16.114;2023-06-22T06:52:40;19.95;;;7.07;;
48623;SDS011;34422;45.802;16.114;2023-06-22T06:55:08;14.02;;;6.72;;
48623;SDS011;34422;45.802;16.114;2023-06-22T06:57:40;13.75;;;5.90;;
48623;SDS011;34422;45.802;16.114;2023-06-22T07:00:08;17.05;;;9.07;;
48623;SDS011;34422;45.802;16.114;2023-06-22T07:02:38;15.73;;;6.60;;
48623;SDS011;34422;45.802;16.114;2023-06-22T07:05:09;14.95;;;5.47;;
48623;SDS011;34422;45.802;16.114;2023-06-22T07:07:37;12.70;;;6.10;;
48623;SDS011;34422;45.802;16.114;2023-06-22T07:10:05;14.32;;;6.90;;
48623;SDS011;34422;45.802;16.114;2023-06-22T07:12:33;17.13;;;7.40;;
48623;SDS011;34422;45.802;16.114;2023-06-22T07:15:03;15.48;;;6.70;;
48623;SDS011;34422;45.802;16.114;2023-06-22T07:17:31;16.52;;;6.50;;
48623;SDS011;34422;45.802;16.114;2023-06-22T07:19:58;15.80;;;7.18;;
48623;SDS011;34422;45.802;16.114;2023-06-22T07:22:25;14.82;;;6.57;;
48623;SDS011;34422;45.802;16.114;2023-06-22T07:24:52;13.52;;;7.35;;
48623;SDS011;34422;45.802;16.114;2023-06-22T07:27:19;13.02;;;6.03;;
48623;SDS011;34422;45.802;16.114;2023-06-22T07:29:46;11.18;;;5.70;;
48623;SDS011;34422;45.802;16.114;2023-06-22T07:32:13;15.77;;;5.95;;
48623;SDS011;34422;45.802;16.114;2023-06-22T07:34:40;20.00;;;6.90;;
48623;SDS011;34422;45.802;16.114;2023-06-22T07:37:07;11.02;;;5.95;;
48623;SDS011;34422;45.802;16.114;2023-06-22T07:39:34;16.02;;;6.97;;
48623;SDS011;34422;45.802;16.114;2023-06-22T07:42:01;12.68;;;6.22;;
48623;SDS011;34422;45.802;16.114;2023-06-22T07:44:28;18.25;;;7.57;;
48623;SDS011;34422;45.802;16.114;2023-06-22T07:46:55;22.02;;;7.93;;
48623;SDS011;34422;45.802;16.114;2023-06-22T07:49:21;11.35;;;6.68;;
48623;SDS011;34422;45.802;16.114;2023-06-22T07:51:48;15.13;;;7.53;;
48623;SDS011;34422;45.802;16.114;2023-06-22T07:54:15;17.88;;;7.30;;
48623;SDS011;34422;45.802;16.114;2023-06-22T07:56:43;14.10;;;7.20;;
48623;SDS011;34422;45.802;16.114;2023-06-22T07:59:09;12.07;;;7.03;;
48623;SDS011;34422;45.802;16.114;2023-06-22T08:01:37;14.98;;;7.28;;
48623;SDS011;34422;45.802;16.114;2023-06-22T08:04:03;15.07;;;7.25;;
48623;SDS011;34422;45.802;16.114;2023-06-22T08:06:32;14.63;;;7.40;;
48623;SDS011;34422;45.802;16.114;2023-06-22T08:08:59;12.93;;;6.78;;
48623;SDS011;34422;45.802;16.114;2023-06-22T08:11:25;13.38;;;6.72;;
48623;SDS011;34422;45.802;16.114;2023-06-22T08:13:53;13.27;;;7.90;;
48623;SDS011;34422;45.802;16.114;2023-06-22T08:18:48;16.02;;;8.25;;
48623;SDS011;34422;45.802;16.114;2023-06-22T08:21:15;15.52;;;8.32;;
48623;SDS011;34422;45.802;16.114;2023-06-22T08:23:42;16.23;;;8.02;;
48623;SDS011;34422;45.802;16.114;2023-06-22T08:26:09;14.23;;;7.97;;
48623;SDS011;34422;45.802;16.114;2023-06-22T08:28:36;15.10;;;7.72;;
48623;SDS011;34422;45.802;16.114;2023-06-22T08:31:03;12.32;;;7.15;;
48623;SDS011;34422;45.802;16.114;2023-06-22T08:33:30;18.45;;;8.30;;
48623;SDS011;34422;45.802;16.114;2023-06-22T08:35:58;14.38;;;8.02;;
48623;SDS011;34422;45.802;16.114;2023-06-22T08:38:25;17.23;;;7.78;;
48623;SDS011;34422;45.802;16.114;2023-06-22T08:40:52;15.55;;;7.70;;
48623;SDS011;34422;45.802;16.114;2023-06-22T08:43:18;13.38;;;8.05;;
48623;SDS011;34422;45.802;16.114;2023-06-22T08:45:45;13.45;;;6.43;;
48623;SDS011;34422;45.802;16.114;2023-06-22T08:48:12;14.32;;;7.22;;
48623;SDS011;34422;45.802;16.114;2023-06-22T08:50:39;14.90;;;8.10;;
48623;SDS011;34422;45.802;16.114;2023-06-22T08:53:06;14.55;;;7.22;;
48623;SDS011;34422;45.802;16.114;2023-06-22T08:55:33;13.45;;;7.07;;
48623;SDS011;34422;45.802;16.114;2023-06-22T08:58:00;14.43;;;8.07;;
48623;SDS011;34422;45.802;16.114;2023-06-22T09:00:27;12.23;;;7.15;;
48623;SDS011;34422;45.802;16.114;2023-06-22T09:02:55;14.93;;;6.83;;
48623;SDS011;34422;45.802;16.114;2023-06-22T09:05:25;15.60;;;6.78;;
48623;SDS011;34422;45.802;16.114;2023-06-22T09:07:56;10.82;;;7.75;;
48623;SDS011;34422;45.802;16.114;2023-06-22T09:10:23;12.80;;;7.40;;
48623;SDS011;34422;45.802;16.114;2023-06-22T09:12:49;14.32;;;7.13;;
48623;SDS011;34422;45.802;16.114;2023-06-22T09:15:16;13.70;;;7.50;;
48623;SDS011;34422;45.802;16.114;2023-06-22T09:17:43;11.65;;;6.60;;
48623;SDS011;34422;45.802;16.114;2023-06-22T09:20:12;12.23;;;7.38;;
48623;SDS011;34422;45.802;16.114;2023-06-22T09:22:39;12.95;;;6.72;;
48623;SDS011;34422;45.802;16.114;2023-06-22T09:25:06;13.32;;;7.30;;
48623;SDS011;34422;45.802;16.114;2023-06-22T09:27:33;18.45;;;8.85;;
48623;SDS011;34422;45.802;16.114;2023-06-22T09:30:00;16.95;;;7.65;;
48623;SDS011;34422;45.802;16.114;2023-06-22T09:32:27;15.55;;;7.00;;
48623;SDS011;34422;45.802;16.114;2023-06-22T09:34:54;14.23;;;7.10;;
48623;SDS011;34422;45.802;16.114;2023-06-22T09:37:21;16.73;;;7.22;;
48623;SDS011;34422;45.802;16.114;2023-06-22T09:39:48;14.50;;;7.40;;
48623;SDS011;34422;45.802;16.114;2023-06-22T09:42:14;17.60;;;7.63;;
48623;SDS011;34422;45.802;16.114;2023-06-22T09:44:41;15.35;;;7.20;;
48623;SDS011;34422;45.802;16.114;2023-06-22T09:47:08;12.40;;;7.45;;
48623;SDS011;34422;45.802;16.114;2023-06-22T09:49:35;18.38;;;7.47;;
48623;SDS011;34422;45.802;16.114;2023-06-22T09:52:02;14.15;;;7.45;;
48623;SDS011;34422;45.802;16.114;2023-06-22T09:54:29;11.50;;;8.27;;
48623;SDS011;34422;45.802;16.114;2023-06-22T09:56:55;12.98;;;7.50;;
48623;SDS011;34422;45.802;16.114;2023-06-22T09:59:22;14.68;;;7.93;;
48623;SDS011;34422;45.802;16.114;2023-06-22T10:01:49;13.43;;;7.82;;
48623;SDS011;34422;45.802;16.114;2023-06-22T10:04:16;19.15;;;7.85;;
48623;SDS011;34422;45.802;16.114;2023-06-22T10:06:42;11.07;;;7.03;;
48623;SDS011;34422;45.802;16.114;2023-06-22T10:09:09;13.02;;;7.57;;
48623;SDS011;34422;45.802;16.114;2023-06-22T10:11:36;14.63;;;8.23;;
48623;SDS011;34422;45.802;16.114;2023-06-22T10:14:03;11.10;;;6.93;;
48623;SDS011;34422;45.802;16.114;2023-06-22T10:16:31;15.35;;;7.57;;
48623;SDS011;34422;45.802;16.114;2023-06-22T10:18:58;19.73;;;9.18;;
48623;SDS011;34422;45.802;16.114;2023-06-22T10:21:25;17.50;;;8.70;;
48623;SDS011;34422;45.802;16.114;2023-06-22T10:23:54;14.90;;;8.52;;
48623;SDS011;34422;45.802;16.114;2023-06-22T10:26:21;12.93;;;7.85;;
48623;SDS011;34422;45.802;16.114;2023-06-22T10:28:49;11.52;;;7.10;;
48623;SDS011;34422;45.802;16.114;2023-06-22T10:31:16;12.35;;;7.85;;
48623;SDS011;34422;45.802;16.114;2023-06-22T10:33:43;12.05;;;7.90;;
48623;SDS011;34422;45.802;16.114;2023-06-22T10:36:11;13.43;;;8.10;;
48623;SDS011;34422;45.802;16.114;2023-06-22T10:38:38;14.38;;;8.25;;
48623;SDS011;34422;45.802;16.114;2023-06-22T10:41:04;10.95;;;7.72;;
48623;SDS011;34422;45.802;16.114;2023-06-22T10:43:31;13.82;;;7.43;;
48623;SDS011;34422;45.802;16.114;2023-06-22T10:45:58;13.88;;;7.97;;
48623;SDS011;34422;45.802;16.114;2023-06-22T10:48:25;14.60;;;8.00;;
48623;SDS011;34422;45.802;16.114;2023-06-22T10:50:52;15.50;;;8.95;;
48623;SDS011;34422;45.802;16.114;2023-06-22T10:53:20;15.40;;;8.75;;
48623;SDS011;34422;45.802;16.114;2023-06-22T10:55:47;13.55;;;8.57;;
48623;SDS011;34422;45.802;16.114;2023-06-22T10:58:14;14.70;;;8.27;;
48623;SDS011;34422;45.802;16.114;2023-06-22T11:00:41;17.58;;;9.10;;
48623;SDS011;34422;45.802;16.114;2023-06-22T11:03:08;15.52;;;9.13;;
48623;SDS011;34422;45.802;16.114;2023-06-22T11:05:34;15.57;;;8.43;;
48623;SDS011;34422;45.802;16.114;2023-06-22T11:08:01;15.60;;;9.45;;
48623;SDS011;34422;45.802;16.114;2023-06-22T11:10:28;12.23;;;8.60;;
48623;SDS011;34422;45.802;16.114;2023-06-22T11:12:55;16.10;;;8.73;;
48623;SDS011;34422;45.802;16.114;2023-06-22T11:15:24;17.60;;;8.10;;
48623;SDS011;34422;45.802;16.114;2023-06-22T11:17:51;13.75;;;8.85;;
48623;SDS011;34422;45.802;16.114;2023-06-22T11:20:18;16.92;;;8.15;;
48623;SDS011;34422;45.802;16.114;2023-06-22T11:22:45;15.68;;;8.30;;
48623;SDS011;34422;45.802;16.114;2023-06-22T11:25:11;17.95;;;8.38;;
48623;SDS011;34422;45.802;16.114;2023-06-22T11:27:38;17.30;;;9.10;;
48623;SDS011;34422;45.802;16.114;2023-06-22T11:30:05;14.23;;;7.93;;
48623;SDS011;34422;45.802;16.114;2023-06-22T11:32:33;12.40;;;8.82;;
48623;SDS011;34422;45.802;16.114;2023-06-22T11:35:00;13.65;;;8.38;;
48623;SDS011;34422;45.802;16.114;2023-06-22T11:37:27;10.82;;;7.78;;
48623;SDS011;34422;45.802;16.114;2023-06-22T11:39:54;16.75;;;9.35;;
48623;SDS011;34422;45.802;16.114;2023-06-22T11:42:21;13.48;;;8.65;;
48623;SDS011;34422;45.802;16.114;2023-06-22T11:44:49;18.92;;;9.30;;
48623;SDS011;34422;45.802;16.114;2023-06-22T11:47:16;12.68;;;8.23;;
48623;SDS011;34422;45.802;16.114;2023-06-22T11:49:43;13.95;;;8.82;;
48623;SDS011;34422;45.802;16.114;2023-06-22T11:52:10;13.85;;;8.63;;
48623;SDS011;34422;45.802;16.114;2023-06-22T11:54:37;11.63;;;7.93;;
48623;SDS011;34422;45.802;16.114;2023-06-22T11:57:04;17.73;;;10.77;;
48623;SDS011;34422;45.802;16.114;2023-06-22T11:59:31;14.18;;;9.48;;
48623;SDS011;34422;45.802;16.114;2023-06-22T12:01:58;14.32;;;8.90;;
48623;SDS011;34422;45.802;16.114;2023-06-22T12:04:25;14.30;;;8.60;;
48623;SDS011;34422;45.802;16.114;2023-06-22T12:06:53;13.50;;;7.90;;
48623;SDS011;34422;45.802;16.114;2023-06-22T12:09:20;12.70;;;9.13;;
48623;SDS011;34422;45.802;16.114;2023-06-22T12:11:46;21.80;;;9.88;;
48623;SDS011;34422;45.802;16.114;2023-06-22T12:14:13;14.68;;;8.30;;
48623;SDS011;34422;45.802;16.114;2023-06-22T12:16:40;16.17;;;9.63;;
48623;SDS011;34422;45.802;16.114;2023-06-22T12:19:07;15.13;;;9.95;;
48623;SDS011;34422;45.802;16.114;2023-06-22T12:21:33;23.63;;;9.43;;
48623;SDS011;34422;45.802;16.114;2023-06-22T12:24:00;16.38;;;10.68;;
48623;SDS011;34422;45.802;16.114;2023-06-22T12:26:27;16.42;;;10.43;;
48623;SDS011;34422;45.802;16.114;2023-06-22T12:28:53;15.55;;;9.80;;
48623;SDS011;34422;45.802;16.114;2023-06-22T12:31:20;14.68;;;9.48;;
48623;SDS011;34422;45.802;16.114;2023-06-22T12:33:47;14.32;;;8.73;;
48623;SDS011;34422;45.802;16.114;2023-06-22T12:36:14;12.27;;;8.43;;
48623;SDS011;34422;45.802;16.114;2023-06-22T12:38:42;22.42;;;10.40;;
48623;SDS011;34422;45.802;16.114;2023-06-22T12:41:09;15.43;;;9.63;;
48623;SDS011;34422;45.802;16.114;2023-06-22T12:43:36;13.68;;;8.68;;
48623;SDS011;34422;45.802;16.114;2023-06-22T12:46:03;14.70;;;9.20;;
48623;SDS011;34422;45.802;16.114;2023-06-22T12:48:29;19.88;;;13.02;;
48623;SDS011;34422;45.802;16.114;2023-06-22T12:50:56;16.50;;;10.07;;
48623;SDS011;34422;45.802;16.114;2023-06-22T12:53:23;18.50;;;9.90;;
48623;SDS011;34422;45.802;16.114;2023-06-22T12:55:50;16.63;;;9.27;;
48623;SDS011;34422;45.802;16.114;2023-06-22T12:58:17;15.32;;;8.95;;
48623;SDS011;34422;45.802;16.114;2023-06-22T13:00:43;14.43;;;9.00;;
48623;SDS011;34422;45.802;16.114;2023-06-22T13:03:10;12.50;;;9.15;;
48623;SDS011;34422;45.802;16.114;2023-06-22T13:05:37;13.70;;;8.88;;
48623;SDS011;34422;45.802;16.114;2023-06-22T13:08:04;15.10;;;9.25;;
48623;SDS011;34422;45.802;16.114;2023-06-22T13:10:31;15.70;;;9.23;;
48623;SDS011;34422;45.802;16.114;2023-06-22T13:12:58;14.82;;;8.45;;
48623;SDS011;34422;45.802;16.114;2023-06-22T13:15:27;14.38;;;8.77;;
48623;SDS011;34422;45.802;16.114;2023-06-22T13:17:55;13.60;;;9.35;;
48623;SDS011;34422;45.802;16.114;2023-06-22T13:20:22;16.95;;;10.80;;
48623;SDS011;34422;45.802;16.114;2023-06-22T13:22:49;17.08;;;9.30;;
48623;SDS011;34422;45.802;16.114;2023-06-22T13:25:15;18.05;;;9.20;;
48623;SDS011;34422;45.802;16.114;2023-06-22T13:27:45;15.93;;;9.77;;
48623;SDS011;34422;45.802;16.114;2023-06-22T13:30:12;11.40;;;8.65;;
48623;SDS011;34422;45.802;16.114;2023-06-22T13:32:41;12.90;;;9.52;;
48623;SDS011;34422;45.802;16.114;2023-06-22T13:35:09;17.55;;;10.07;;
48623;SDS011;34422;45.802;16.114;2023-06-22T13:37:36;14.63;;;9.02;;
48623;SDS011;34422;45.802;16.114;2023-06-22T13:40:07;12.20;;;8.70;;
48623;SDS011;34422;45.802;16.114;2023-06-22T13:42:34;15.43;;;8.73;;
48623;SDS011;34422;45.802;16.114;2023-06-22T13:45:01;18.73;;;9.48;;
48623;SDS011;34422;45.802;16.114;2023-06-22T13:47:28;15.07;;;8.48;;
48623;SDS011;34422;45.802;16.114;2023-06-22T13:49:56;15.25;;;8.90;;
48623;SDS011;34422;45.802;16.114;2023-06-22T13:52:24;18.52;;;9.10;;
48623;SDS011;34422;45.802;16.114;2023-06-22T13:54:51;18.42;;;9.00;;
48623;SDS011;34422;45.802;16.114;2023-06-22T13:57:18;15.30;;;9.45;;
48623;SDS011;34422;45.802;16.114;2023-06-22T13:59:44;19.83;;;8.52;;
48623;SDS011;34422;45.802;16.114;2023-06-22T14:02:11;17.30;;;9.82;;
48623;SDS011;34422;45.802;16.114;2023-06-22T14:04:38;19.70;;;13.40;;
48623;SDS011;34422;45.802;16.114;2023-06-22T14:07:05;19.85;;;14.25;;
48623;SDS011;34422;45.802;16.114;2023-06-22T14:09:32;31.95;;;20.92;;
48623;SDS011;34422;45.802;16.114;2023-06-22T14:12:02;12.98;;;8.90;;
48623;SDS011;34422;45.802;16.114;2023-06-22T14:14:30;17.95;;;8.57;;
48623;SDS011;34422;45.802;16.114;2023-06-22T14:16:57;20.15;;;10.70;;
48623;SDS011;34422;45.802;16.114;2023-06-22T14:19:24;21.85;;;11.05;;
48623;SDS011;34422;45.802;16.114;2023-06-22T14:21:51;19.08;;;9.43;;
48623;SDS011;34422;45.802;16.114;2023-06-22T14:24:18;14.45;;;8.70;;
48623;SDS011;34422;45.802;16.114;2023-06-22T14:26:44;19.83;;;10.13;;
48623;SDS011;34422;45.802;16.114;2023-06-22T14:29:11;15.43;;;8.88;;
48623;SDS011;34422;45.802;16.114;2023-06-22T14:31:38;14.15;;;9.10;;
48623;SDS011;34422;45.802;16.114;2023-06-22T14:34:05;15.98;;;8.77;;